Terminal Aerodrome Forecast
Issued by NWS

Home | Current Version | Previous Version | Text Only | Print | Product List | Glossary On
Versions: 1 2 3 4 5 6 7 8 9 10 11 12 13 14 15 16 17 18 19 20 21 22 23 24 25 26 27 28 29 30 31 32
295
FTUS43 KLOT 221720
TAFORD
TAF
KORD 221720Z 2218/2324 06008KT P6SM SKC
     FM222000 08010KT P6SM SKC
     FM230100 09006KT P6SM SKC
     FM231000 14004KT P6SM SCT100 BKN250
     FM231600 17008KT P6SM BKN070
     FM232100 15008KT P6SM BKN070=

USA.gov is the U.S. government's official web portal to all federal, state and local government web resources and services.